Time;durP1;ratioP1;P1;durP2;ratioP2;P2;SDS_P1;SDS_P2;PMS_P1;PMS_P2;Temp;Humidity;BMP_temperature;BMP_pressure;BME280_temperature;BME280_humidity;BME280_pressure;Samples;Min_cycle;Max_cycle;Signal;HPM_P1;HPM_P2
2022/07/28 00:01:43;;;;;;;11.65;3.38;;;;;;;;;;4931727;29;20397;-73
2022/07/28 00:04:08;;;;;;;10.80;3.80;;;;;;;;;;4933230;29;20106;-73
2022/07/28 00:06:34;;;;;;;6.75;2.95;;;;;;;;;;4931691;29;20034;-74
2022/07/28 00:08:59;;;;;;;14.25;3.63;;;;;;;;;;4947732;29;20516;-74
2022/07/28 00:11:25;;;;;;;8.70;3.03;;;;;;;;;;4933002;29;20028;-75
2022/07/28 00:13:50;;;;;;;7.30;3.95;;;;;;;;;;4932992;29;20031;-74
2022/07/28 00:16:16;;;;;;;8.00;3.15;;;;;;;;;;4947570;29;20035;-72
2022/07/28 00:18:42;;;;;;;10.25;3.40;;;;;;;;;;4931402;29;20118;-74
2022/07/28 00:21:08;;;;;;;7.70;3.85;;;;;;;;;;4931646;29;20031;-74
2022/07/28 00:23:33;;;;;;;10.57;3.28;;;;;;;;;;4939544;29;20038;-74
2022/07/28 00:25:59;;;;;;;7.63;3.30;;;;;;;;;;4934642;29;20034;-74
2022/07/28 00:28:24;;;;;;;8.38;3.17;;;;;;;;;;4950498;29;20043;-76
2022/07/28 00:30:50;;;;;;;10.18;4.18;;;;;;;;;;4950436;29;20034;-74
2022/07/28 00:33:15;;;;;;;10.88;3.50;;;;;;;;;;4934703;29;20027;-74
2022/07/28 00:35:41;;;;;;;9.95;4.25;;;;;;;;;;4950458;29;20054;-74
2022/07/28 00:38:07;;;;;;;6.47;3.03;;;;;;;;;;4950497;29;20039;-74
2022/07/28 00:43:16;;;;;;;8.82;3.22;;;;;;;;;;4952162;29;20037;-74
2022/07/28 00:45:42;;;;;;;8.10;3.55;;;;;;;;;;4950073;29;20027;-74
2022/07/28 00:48:08;;;;;;;7.13;3.30;;;;;;;;;;4952039;29;20031;-74
2022/07/28 00:50:33;;;;;;;4.55;3.08;;;;;;;;;;4950320;29;20015;-73
2022/07/28 00:52:59;;;;;;;5.28;3.10;;;;;;;;;;4950171;29;20139;-73
2022/07/28 00:55:25;;;;;;;8.30;3.35;;;;;;;;;;4950976;28;20031;-73
2022/07/28 00:57:50;;;;;;;8.18;3.25;;;;;;;;;;4950386;29;20027;-73
2022/07/28 01:00:16;;;;;;;7.30;3.05;;;;;;;;;;4950532;29;20033;-73
2022/07/28 01:02:45;;;;;;;7.10;3.28;;;;;;;;;;4950046;29;20035;-74
2022/07/28 01:05:13;;;;;;;11.65;3.10;;;;;;;;;;4951499;28;20023;-73
2022/07/28 01:07:53;;;;;;;8.65;3.50;;;;;;;;;;4949884;29;20055;-73
2022/07/28 01:10:32;;;;;;;7.82;3.28;;;;;;;;;;4950181;29;20067;-73
2022/07/28 01:13:07;;;;;;;7.38;3.15;;;;;;;;;;4950314;28;20035;-73
2022/07/28 01:15:37;;;;;;;9.57;3.20;;;;;;;;;;4950059;29;20031;-73
2022/07/28 01:18:07;;;;;;;9.52;4.25;;;;;;;;;;4950154;29;20331;-73
2022/07/28 01:20:40;;;;;;;10.57;3.17;;;;;;;;;;4951166;28;20034;-75
2022/07/28 01:23:30;;;;;;;6.45;3.22;;;;;;;;;;4945407;29;20031;-75
2022/07/28 01:26:17;;;;;;;4.50;2.72;;;;;;;;;;4932364;29;20023;-74
2022/07/28 01:28:45;;;;;;;7.38;3.17;;;;;;;;;;4932162;29;20567;-74
2022/07/28 01:31:18;;;;;;;8.38;3.30;;;;;;;;;;4930886;29;20035;-74
2022/07/28 01:33:49;;;;;;;7.03;3.88;;;;;;;;;;4914741;29;20046;-74
2022/07/28 01:36:22;;;;;;;8.50;3.67;;;;;;;;;;4932149;29;20034;-73
2022/07/28 01:38:48;;;;;;;5.82;3.15;;;;;;;;;;4931810;29;20134;-76
2022/07/28 01:41:18;;;;;;;6.85;3.60;;;;;;;;;;4932134;29;20042;-74
2022/07/28 01:43:50;;;;;;;6.63;3.38;;;;;;;;;;4930831;29;20039;-73
2022/07/28 01:46:17;;;;;;;10.77;3.08;;;;;;;;;;4932223;29;20477;-73
2022/07/28 01:48:45;;;;;;;10.05;3.75;;;;;;;;;;4930757;29;20473;-72
2022/07/28 01:51:13;;;;;;;7.40;3.05;;;;;;;;;;4930879;29;20067;-74
2022/07/28 01:53:39;;;;;;;12.82;3.30;;;;;;;;;;4930335;29;20086;-72
2022/07/28 01:56:07;;;;;;;10.82;3.47;;;;;;;;;;4930548;29;20032;-73
2022/07/28 01:58:34;;;;;;;5.63;3.75;;;;;;;;;;4932279;29;20395;-74
2022/07/28 02:01:02;;;;;;;6.93;3.30;;;;;;;;;;4914643;29;20119;-74
2022/07/28 02:03:30;;;;;;;7.97;3.15;;;;;;;;;;4915160;29;20031;-74
2022/07/28 02:05:58;;;;;;;13.85;3.85;;;;;;;;;;4916510;29;20445;-74
2022/07/28 02:08:25;;;;;;;10.55;3.17;;;;;;;;;;4934055;29;20055;-73
2022/07/28 02:13:38;;;;;;;5.47;3.00;;;;;;;;;;4935818;29;20471;-74
2022/07/28 02:16:06;;;;;;;6.05;2.83;;;;;;;;;;4934047;29;20031;-74
2022/07/28 02:18:35;;;;;;;3.85;3.15;;;;;;;;;;4935010;29;20166;-74
2022/07/28 02:21:02;;;;;;;10.30;2.90;;;;;;;;;;4934928;29;20067;-74
2022/07/28 02:23:28;;;;;;;5.75;3.22;;;;;;;;;;4940996;29;20038;-74
2022/07/28 02:25:56;;;;;;;7.03;3.17;;;;;;;;;;4952493;29;20179;-74
2022/07/28 02:28:25;;;;;;;9.63;2.95;;;;;;;;;;4952596;29;20495;-74
2022/07/28 02:31:28;;;;;;;13.45;3.92;;;;;;;;;;4952649;29;20501;-73
2022/07/28 02:33:57;;;;;;;10.13;2.83;;;;;;;;;;4941963;28;20089;-74
2022/07/28 02:36:46;;;;;;;7.88;2.65;;;;;;;;;;4952799;29;20139;-75
2022/07/28 02:39:20;;;;;;;6.95;3.17;;;;;;;;;;4952571;29;20035;-74
2022/07/28 02:41:50;;;;;;;6.57;3.00;;;;;;;;;;4952505;29;20031;-73
2022/07/28 02:44:19;;;;;;;8.05;3.63;;;;;;;;;;4952279;29;20121;-75
2022/07/28 02:46:49;;;;;;;12.35;3.72;;;;;;;;;;4952364;29;20551;-74
2022/07/28 02:49:24;;;;;;;6.70;3.13;;;;;;;;;;4953765;28;20031;-73
2022/07/28 02:51:51;;;;;;;9.05;3.38;;;;;;;;;;4951986;29;20081;-72
2022/07/28 02:54:19;;;;;;;11.98;3.65;;;;;;;;;;4952402;29;20449;-74
2022/07/28 02:56:49;;;;;;;9.88;3.47;;;;;;;;;;4952194;29;20049;-73
2022/07/28 02:59:16;;;;;;;11.90;4.55;;;;;;;;;;4952426;29;20403;-73
2022/07/28 03:01:42;;;;;;;9.45;3.80;;;;;;;;;;4953545;28;20244;-73
2022/07/28 03:04:09;;;;;;;3.90;3.15;;;;;;;;;;4969013;28;20279;-73
2022/07/28 03:06:35;;;;;;;7.10;3.55;;;;;;;;;;4952577;29;20027;-73
2022/07/28 03:09:01;;;;;;;8.38;4.07;;;;;;;;;;4952760;29;20051;-73
2022/07/28 03:11:26;;;;;;;11.32;3.70;;;;;;;;;;4953862;28;20527;-73
2022/07/28 03:13:52;;;;;;;9.55;3.97;;;;;;;;;;4952053;29;20038;-74
2022/07/28 03:16:19;;;;;;;6.35;3.00;;;;;;;;;;4953491;28;20395;-74
2022/07/28 03:18:45;;;;;;;21.27;4.88;;;;;;;;;;4951547;28;20069;-73
2022/07/28 03:21:10;;;;;;;9.00;3.70;;;;;;;;;;4951714;28;20062;-74
2022/07/28 03:23:40;;;;;;;11.68;3.70;;;;;;;;;;4944207;28;20476;-74
2022/07/28 03:26:14;;;;;;;6.82;3.70;;;;;;;;;;4932784;29;20063;-73
2022/07/28 03:28:41;;;;;;;8.18;4.32;;;;;;;;;;4932251;29;20032;-73
2022/07/28 03:31:10;;;;;;;9.18;4.10;;;;;;;;;;4934003;29;20168;-73
2022/07/28 03:33:37;;;;;;;7.88;4.03;;;;;;;;;;4948070;29;20090;-73
2022/07/28 03:36:08;;;;;;;7.25;3.42;;;;;;;;;;4932401;29;20122;-73
2022/07/28 03:38:42;;;;;;;8.32;4.00;;;;;;;;;;4932235;29;20031;-73
2022/07/28 03:41:10;;;;;;;6.13;3.05;;;;;;;;;;4933432;29;20118;-74
2022/07/28 03:43:36;;;;;;;14.95;4.50;;;;;;;;;;4931951;29;20360;-75
2022/07/28 03:46:02;;;;;;;6.88;3.38;;;;;;;;;;4932269;29;20138;-75
2022/07/28 03:48:32;;;;;;;10.15;3.53;;;;;;;;;;4933542;29;20169;-74
2022/07/28 03:50:57;;;;;;;10.60;3.85;;;;;;;;;;4933178;29;20028;-74
2022/07/28 03:53:28;;;;;;;31.85;4.82;;;;;;;;;;4932180;29;20090;-73
2022/07/28 03:55:54;;;;;;;6.05;3.88;;;;;;;;;;4931955;29;20461;-74
2022/07/28 03:58:22;;;;;;;8.48;4.30;;;;;;;;;;4931890;29;20110;-74
2022/07/28 04:00:48;;;;;;;10.35;4.43;;;;;;;;;;4931896;29;20114;-75
2022/07/28 04:03:14;;;;;;;11.55;5.13;;;;;;;;;;4933069;29;20046;-74
2022/07/28 04:05:40;;;;;;;11.75;4.97;;;;;;;;;;4932637;29;20440;-74
2022/07/28 04:08:06;;;;;;;10.63;3.80;;;;;;;;;;4932918;29;20500;-75
2022/07/28 04:10:31;;;;;;;7.90;4.15;;;;;;;;;;4931510;29;20035;-72
2022/07/28 04:12:57;;;;;;;8.20;3.85;;;;;;;;;;4931722;29;20361;-73
2022/07/28 04:15:24;;;;;;;9.65;4.20;;;;;;;;;;4932048;29;20388;-74
2022/07/28 04:17:51;;;;;;;9.55;4.20;;;;;;;;;;4931612;29;20043;-73
2022/07/28 04:20:19;;;;;;;11.82;4.15;;;;;;;;;;4931547;29;20125;-73
2022/07/28 04:22:46;;;;;;;9.50;4.15;;;;;;;;;;4932872;29;20035;-73
2022/07/28 04:25:12;;;;;;;8.38;4.25;;;;;;;;;;4950529;29;20497;-73
2022/07/28 04:27:38;;;;;;;9.23;4.88;;;;;;;;;;4950684;29;20599;-73
2022/07/28 04:30:06;;;;;;;12.13;5.00;;;;;;;;;;4950958;28;20409;-73
2022/07/28 04:32:32;;;;;;;9.63;4.38;;;;;;;;;;4951614;28;20027;-74
2022/07/28 04:34:58;;;;;;;7.53;4.05;;;;;;;;;;4951869;28;20035;-73
2022/07/28 04:37:24;;;;;;;8.85;4.75;;;;;;;;;;4952343;28;20030;-72
2022/07/28 04:39:49;;;;;;;7.22;3.63;;;;;;;;;;4953260;29;20121;-74
2022/07/28 04:42:17;;;;;;;10.80;4.80;;;;;;;;;;4953591;29;20121;-71
2022/07/28 04:44:44;;;;;;;12.88;5.05;;;;;;;;;;4952443;29;20042;-75
2022/07/28 04:47:11;;;;;;;6.50;5.03;;;;;;;;;;4967786;28;20031;-73
2022/07/28 04:49:37;;;;;;;8.43;4.70;;;;;;;;;;4952258;28;20126;-74
2022/07/28 04:52:07;;;;;;;9.77;4.07;;;;;;;;;;4935709;29;20129;-73
2022/07/28 04:54:33;;;;;;;10.85;3.90;;;;;;;;;;4950717;29;20038;-73
2022/07/28 04:56:58;;;;;;;9.20;4.47;;;;;;;;;;4951782;28;20055;-73
2022/07/28 04:59:24;;;;;;;13.73;4.32;;;;;;;;;;4951469;28;20535;-73
2022/07/28 05:01:49;;;;;;;11.35;4.72;;;;;;;;;;4951432;28;20447;-73
2022/07/28 05:04:15;;;;;;;9.15;4.75;;;;;;;;;;4951388;28;20031;-74
2022/07/28 05:06:40;;;;;;;8.15;4.53;;;;;;;;;;4951244;28;20031;-74
2022/07/28 05:09:06;;;;;;;11.75;4.28;;;;;;;;;;4934264;29;20132;-74
2022/07/28 05:11:32;;;;;;;14.30;4.85;;;;;;;;;;4951533;28;20404;-74
2022/07/28 05:13:57;;;;;;;8.93;4.63;;;;;;;;;;4949863;29;20039;-73
2022/07/28 05:16:23;;;;;;;12.15;5.07;;;;;;;;;;4950142;29;20030;-74
2022/07/28 05:18:48;;;;;;;7.75;4.80;;;;;;;;;;4944498;28;20058;-73
2022/07/28 05:21:14;;;;;;;11.52;4.70;;;;;;;;;;4959590;28;20062;-74
2022/07/28 05:23:39;;;;;;;11.85;6.30;;;;;;;;;;4947078;29;20045;-74
2022/07/28 05:26:06;;;;;;;10.52;5.43;;;;;;;;;;4950462;28;20070;-75
2022/07/28 05:28:32;;;;;;;12.88;5.20;;;;;;;;;;4961541;28;20034;-75
2022/07/28 05:31:01;;;;;;;13.15;4.95;;;;;;;;;;4951269;28;20027;-74
2022/07/28 05:33:26;;;;;;;8.65;4.88;;;;;;;;;;4967159;28;20558;-75
2022/07/28 05:35:58;;;;;;;11.85;5.57;;;;;;;;;;4964381;28;20031;-73
2022/07/28 05:38:32;;;;;;;11.80;5.40;;;;;;;;;;4956027;28;20035;-75
2022/07/28 05:40:59;;;;;;;9.95;5.22;;;;;;;;;;4965147;28;20498;-73
2022/07/28 05:43:24;;;;;;;19.45;6.47;;;;;;;;;;4955207;28;20425;-75
2022/07/28 05:45:50;;;;;;;16.55;7.40;;;;;;;;;;4958282;28;20030;-74
2022/07/28 05:48:19;;;;;;;10.38;5.57;;;;;;;;;;4964328;28;20254;-74
2022/07/28 05:50:46;;;;;;;11.07;5.68;;;;;;;;;;4954402;28;20488;-72
2022/07/28 05:53:11;;;;;;;10.25;6.03;;;;;;;;;;4968314;28;20033;-74
2022/07/28 05:55:37;;;;;;;10.10;4.80;;;;;;;;;;4953059;28;20126;-75
2022/07/28 05:58:03;;;;;;;9.75;6.30;;;;;;;;;;4955246;29;20027;-74
2022/07/28 06:00:31;;;;;;;8.85;4.93;;;;;;;;;;4956508;28;20034;-74
2022/07/28 06:03:00;;;;;;;14.50;6.10;;;;;;;;;;4952120;28;20034;-73
2022/07/28 06:05:26;;;;;;;12.93;5.90;;;;;;;;;;4953933;28;20105;-75
2022/07/28 06:07:51;;;;;;;21.08;6.13;;;;;;;;;;4965597;28;20499;-75
2022/07/28 06:10:20;;;;;;;10.32;6.15;;;;;;;;;;4960341;28;20023;-74
2022/07/28 06:12:48;;;;;;;24.83;15.23;;;;;;;;;;4953226;28;20438;-74
2022/07/28 06:15:16;;;;;;;17.75;6.97;;;;;;;;;;4949658;28;20041;-72
2022/07/28 06:17:42;;;;;;;15.38;6.55;;;;;;;;;;4948743;28;20472;-75
2022/07/28 06:20:08;;;;;;;15.18;5.90;;;;;;;;;;4957081;28;20114;-75
2022/07/28 06:22:42;;;;;;;14.18;6.38;;;;;;;;;;4961555;28;20031;-73
2022/07/28 06:25:14;;;;;;;11.77;6.03;;;;;;;;;;4952230;28;20108;-75
2022/07/28 06:27:40;;;;;;;16.08;6.15;;;;;;;;;;4947921;28;20031;-74
2022/07/28 06:30:06;;;;;;;18.40;5.93;;;;;;;;;;4960868;28;20186;-75
2022/07/28 06:32:32;;;;;;;10.38;5.65;;;;;;;;;;4959057;28;20034;-76
2022/07/28 06:34:57;;;;;;;17.92;5.70;;;;;;;;;;4953554;28;20031;-75
2022/07/28 06:37:23;;;;;;;14.93;5.40;;;;;;;;;;4953523;28;20053;-73
2022/07/28 06:39:48;;;;;;;13.68;5.88;;;;;;;;;;4971215;28;20062;-74
2022/07/28 06:42:14;;;;;;;13.82;5.93;;;;;;;;;;4962681;28;20027;-75
2022/07/28 06:44:40;;;;;;;16.13;5.78;;;;;;;;;;4951324;28;20063;-75
2022/07/28 06:47:05;;;;;;;10.48;4.97;;;;;;;;;;4963041;28;20027;-75
2022/07/28 06:49:31;;;;;;;9.95;5.43;;;;;;;;;;4954417;28;20019;-74
2022/07/28 06:51:56;;;;;;;8.75;4.00;;;;;;;;;;4966965;28;20046;-75
2022/07/28 06:54:22;;;;;;;11.20;3.97;;;;;;;;;;4964271;28;20054;-75
2022/07/28 06:56:47;;;;;;;13.50;3.97;;;;;;;;;;4951057;28;20027;-73
2022/07/28 06:59:14;;;;;;;9.55;3.40;;;;;;;;;;4946372;28;20027;-76
2022/07/28 07:01:41;;;;;;;9.85;2.53;;;;;;;;;;4941734;28;20038;-75
2022/07/28 07:04:09;;;;;;;7.40;2.95;;;;;;;;;;4941576;28;20027;-74
2022/07/28 07:06:35;;;;;;;12.55;3.70;;;;;;;;;;4945718;28;20043;-74
2022/07/28 07:09:01;;;;;;;10.23;3.50;;;;;;;;;;4942261;28;20050;-75
2022/07/28 07:11:26;;;;;;;10.02;3.70;;;;;;;;;;4940763;28;20542;-75
2022/07/28 07:13:53;;;;;;;11.75;3.63;;;;;;;;;;4945232;28;20035;-76
2022/07/28 07:16:18;;;;;;;11.80;3.75;;;;;;;;;;4960163;28;20039;-76
2022/07/28 07:18:44;;;;;;;12.98;3.95;;;;;;;;;;4942415;28;20959;-75
2022/07/28 07:21:09;;;;;;;15.93;4.38;;;;;;;;;;4958774;28;20227;-76
2022/07/28 07:23:35;;;;;;;10.32;3.72;;;;;;;;;;4943957;28;20089;-76
2022/07/28 07:26:02;;;;;;;13.48;3.95;;;;;;;;;;4946145;28;20039;-74
2022/07/28 07:28:28;;;;;;;8.82;4.32;;;;;;;;;;4940906;28;20040;-75
2022/07/28 07:30:53;;;;;;;14.85;4.38;;;;;;;;;;4944824;28;20035;-75
2022/07/28 07:33:19;;;;;;;19.10;5.05;;;;;;;;;;4944586;28;20105;-74
2022/07/28 07:35:45;;;;;;;8.75;3.70;;;;;;;;;;4958753;28;20506;-75
2022/07/28 07:38:10;;;;;;;8.52;4.18;;;;;;;;;;4944351;28;20491;-74
2022/07/28 07:40:36;;;;;;;13.30;3.40;;;;;;;;;;4940324;28;20059;-74
2022/07/28 07:43:03;;;;;;;17.65;3.80;;;;;;;;;;4942420;28;20031;-75
2022/07/28 07:45:28;;;;;;;13.35;3.85;;;;;;;;;;4960305;28;20035;-74
2022/07/28 07:47:55;;;;;;;8.98;3.13;;;;;;;;;;4944688;28;20134;-73
2022/07/28 07:50:20;;;;;;;9.98;2.85;;;;;;;;;;4940377;28;20033;-76
2022/07/28 07:52:50;;;;;;;12.23;3.70;;;;;;;;;;4944770;28;20884;-75
2022/07/28 07:55:17;;;;;;;9.75;3.28;;;;;;;;;;4944007;28;20879;-76
2022/07/28 07:57:43;;;;;;;6.20;2.55;;;;;;;;;;4941441;28;20043;-75
2022/07/28 08:00:09;;;;;;;9.82;3.00;;;;;;;;;;4929806;28;20710;-75
2022/07/28 08:02:40;;;;;;;12.30;2.88;;;;;;;;;;4942392;28;20031;-75
2022/07/28 08:05:08;;;;;;;9.50;2.72;;;;;;;;;;4942447;28;20031;-76
2022/07/28 08:07:34;;;;;;;10.25;3.28;;;;;;;;;;4942520;28;20743;-75
2022/07/28 08:10:00;;;;;;;7.35;3.15;;;;;;;;;;4937470;28;20125;-76
2022/07/28 08:12:26;;;;;;;5.18;2.63;;;;;;;;;;4946967;28;20055;-74
2022/07/28 08:14:52;;;;;;;6.93;2.65;;;;;;;;;;4941636;28;20027;-76
2022/07/28 08:17:19;;;;;;;7.90;2.22;;;;;;;;;;4947049;28;20062;-76
2022/07/28 08:19:46;;;;;;;7.70;2.83;;;;;;;;;;4938975;28;20428;-73
2022/07/28 08:22:12;;;;;;;5.50;2.40;;;;;;;;;;4940390;28;20029;-75
2022/07/28 08:24:38;;;;;;;7.72;2.35;;;;;;;;;;4939482;28;20043;-74
2022/07/28 08:27:05;;;;;;;7.00;1.38;;;;;;;;;;4943608;28;20397;-74
2022/07/28 08:29:31;;;;;;;4.80;1.88;;;;;;;;;;4939326;28;20149;-76
2022/07/28 08:31:57;;;;;;;8.82;1.67;;;;;;;;;;4934221;28;20059;-75
2022/07/28 08:34:24;;;;;;;8.32;2.80;;;;;;;;;;4943552;28;20063;-75
2022/07/28 08:36:50;;;;;;;7.00;1.70;;;;;;;;;;4950803;28;20070;-74
2022/07/28 08:39:15;;;;;;;4.47;1.48;;;;;;;;;;4945217;28;20673;-76
2022/07/28 08:42:05;;;;;;;8.80;2.17;;;;;;;;;;4945100;28;20373;-76
2022/07/28 08:44:57;;;;;;;5.18;2.17;;;;;;;;;;4931897;28;20126;-75
2022/07/28 08:47:25;;;;;;;4.97;2.00;;;;;;;;;;4949886;28;20035;-76
2022/07/28 08:49:54;;;;;;;4.97;2.22;;;;;;;;;;4940799;28;20552;-77
2022/07/28 08:52:21;;;;;;;13.45;2.40;;;;;;;;;;4957734;28;20039;-80
2022/07/28 08:54:48;;;;;;;12.60;2.95;;;;;;;;;;4946154;28;20027;-77
2022/07/28 08:57:39;;;;;;;11.18;2.10;;;;;;;;;;4945922;28;20038;-77
2022/07/28 09:00:06;;;;;;;20.15;2.63;;;;;;;;;;4943982;28;20035;-75
2022/07/28 09:02:45;;;;;;;8.23;2.35;;;;;;;;;;4958039;28;20085;-76
2022/07/28 09:05:21;;;;;;;11.85;2.67;;;;;;;;;;4943586;28;20086;-77
2022/07/28 09:07:49;;;;;;;6.15;2.08;;;;;;;;;;4944028;28;20059;-76
2022/07/28 09:10:16;;;;;;;6.65;2.20;;;;;;;;;;4938847;28;20654;-76
2022/07/28 09:12:44;;;;;;;13.70;1.90;;;;;;;;;;4942593;28;20051;-77
2022/07/28 09:15:12;;;;;;;9.75;2.33;;;;;;;;;;4929790;28;20039;-78
2022/07/28 09:17:41;;;;;;;6.47;2.20;;;;;;;;;;4947325;29;20027;-77
2022/07/28 09:20:07;;;;;;;7.55;1.45;;;;;;;;;;4964713;28;20046;-78
2022/07/28 09:23:05;;;;;;;4.88;1.70;;;;;;;;;;4948052;28;20031;-78
2022/07/28 09:25:32;;;;;;;8.52;2.95;;;;;;;;;;4952272;28;20130;-78
2022/07/28 09:28:16;;;;;;;9.35;2.10;;;;;;;;;;4950675;28;20034;-75
2022/07/28 09:30:45;;;;;;;7.95;1.90;;;;;;;;;;4961197;28;20035;-77
2022/07/28 09:33:21;;;;;;;6.63;2.00;;;;;;;;;;4946347;28;20368;-78
2022/07/28 09:35:46;;;;;;;7.10;1.70;;;;;;;;;;4955099;28;20818;-77
2022/07/28 09:38:13;;;;;;;3.67;1.92;;;;;;;;;;4970980;28;20033;-77
2022/07/28 09:40:39;;;;;;;4.05;1.75;;;;;;;;;;4958268;28;20042;-76
2022/07/28 09:43:11;;;;;;;12.35;2.33;;;;;;;;;;4959437;28;20408;-77
2022/07/28 09:45:37;;;;;;;6.18;1.90;;;;;;;;;;4950614;28;20047;-77
2022/07/28 09:48:14;;;;;;;5.55;1.88;;;;;;;;;;4948323;28;20043;-78
2022/07/28 09:50:41;;;;;;;9.07;1.63;;;;;;;;;;4959652;28;20035;-76
2022/07/28 09:53:26;;;;;;;8.20;1.52;;;;;;;;;;4944642;28;20500;-77
2022/07/28 09:55:56;;;;;;;5.22;2.08;;;;;;;;;;4943760;28;20043;-76
2022/07/28 09:58:22;;;;;;;3.95;2.08;;;;;;;;;;4952109;28;20043;-77
2022/07/28 10:00:49;;;;;;;2.80;1.55;;;;;;;;;;4939353;28;20574;-78
2022/07/28 10:03:25;;;;;;;4.50;1.83;;;;;;;;;;4944600;29;20412;-77
2022/07/28 10:05:51;;;;;;;5.68;1.65;;;;;;;;;;4945054;28;20079;-78
2022/07/28 10:08:17;;;;;;;3.15;1.50;;;;;;;;;;4946972;29;20087;-78
2022/07/28 10:10:58;;;;;;;4.03;1.85;;;;;;;;;;4940548;28;20444;-78
2022/07/28 10:13:24;;;;;;;8.18;2.28;;;;;;;;;;4945928;28;20031;-76
2022/07/28 10:16:09;;;;;;;3.88;2.95;;;;;;;;;;4945972;28;20561;-77
2022/07/28 10:18:34;;;;;;;5.68;1.98;;;;;;;;;;4953928;28;20297;-75
2022/07/28 10:21:03;;;;;;;3.72;1.88;;;;;;;;;;4942355;28;20483;-74
2022/07/28 10:23:29;;;;;;;6.43;2.55;;;;;;;;;;4948968;28;20050;-76
2022/07/28 10:25:57;;;;;;;9.98;2.33;;;;;;;;;;4948435;28;20047;-76
2022/07/28 10:28:23;;;;;;;6.85;1.83;;;;;;;;;;4939548;28;20035;-76
2022/07/28 10:30:54;;;;;;;8.77;3.13;;;;;;;;;;4946881;28;20546;-76
2022/07/28 10:33:22;;;;;;;5.53;2.17;;;;;;;;;;4944144;29;20062;-77
2022/07/28 10:35:49;;;;;;;4.85;1.90;;;;;;;;;;4951724;29;20031;-78
2022/07/28 10:38:19;;;;;;;7.28;2.60;;;;;;;;;;4951521;29;20249;-78
2022/07/28 10:40:47;;;;;;;5.97;2.28;;;;;;;;;;4951845;28;20039;-77
2022/07/28 10:43:13;;;;;;;5.85;1.90;;;;;;;;;;4951888;28;20081;-77
2022/07/28 10:45:39;;;;;;;3.88;1.77;;;;;;;;;;4952352;28;20059;-76
2022/07/28 10:48:06;;;;;;;8.25;2.10;;;;;;;;;;4957161;28;20058;-75
2022/07/28 10:50:33;;;;;;;10.27;1.90;;;;;;;;;;4951451;28;20529;-75
2022/07/28 10:53:01;;;;;;;8.10;2.30;;;;;;;;;;4930586;29;20031;-76
2022/07/28 10:55:48;;;;;;;3.53;1.55;;;;;;;;;;4960478;28;20035;-78
2022/07/28 10:58:22;;;;;;;8.82;2.80;;;;;;;;;;4949735;28;20031;-77
2022/07/28 11:00:52;;;;;;;3.33;1.58;;;;;;;;;;4953042;28;20023;-78
2022/07/28 11:03:37;;;;;;;9.13;1.88;;;;;;;;;;4954776;28;20535;-76
2022/07/28 11:06:25;;;;;;;4.65;2.30;;;;;;;;;;4963558;28;20701;-76
2022/07/28 11:08:51;;;;;;;5.75;1.88;;;;;;;;;;4951351;28;20133;-77
2022/07/28 11:11:43;;;;;;;3.22;2.00;;;;;;;;;;4953337;28;20131;-76
2022/07/28 11:14:28;;;;;;;4.05;1.67;;;;;;;;;;4960024;28;20086;-79
2022/07/28 11:16:59;;;;;;;11.65;2.33;;;;;;;;;;4967414;28;20026;-78
2022/07/28 11:19:25;;;;;;;;;;;;;;;;;;4950736;28;20114;-77
2022/07/28 11:22:13;;;;;;;5.18;2.17;;;;;;;;;;4944771;28;20355;-77
2022/07/28 11:25:04;;;;;;;6.07;2.20;;;;;;;;;;4947508;28;20050;-76
2022/07/28 11:27:44;;;;;;;7.00;1.77;;;;;;;;;;4966814;28;20035;-78
2022/07/28 11:30:32;;;;;;;5.38;1.75;;;;;;;;;;4953675;28;20074;-76
2022/07/28 11:33:01;;;;;;;6.82;2.53;;;;;;;;;;4954747;28;20031;-76
2022/07/28 11:35:52;;;;;;;6.22;1.90;;;;;;;;;;4972865;28;20035;-76
2022/07/28 11:38:18;;;;;;;6.30;2.50;;;;;;;;;;4957508;28;20098;-78
2022/07/28 11:40:46;;;;;;;8.85;1.63;;;;;;;;;;4949303;28;20438;-77
2022/07/28 11:43:20;;;;;;;6.32;3.00;;;;;;;;;;4950484;28;20035;-77
2022/07/28 11:45:47;;;;;;;8.40;1.83;;;;;;;;;;4950779;28;20118;-77
2022/07/28 11:48:14;;;;;;;3.67;1.95;;;;;;;;;;4937173;28;20030;-77
2022/07/28 11:50:41;;;;;;;5.05;1.90;;;;;;;;;;4942723;28;20050;-78
2022/07/28 11:53:07;;;;;;;5.35;2.08;;;;;;;;;;4962354;28;20065;-74
2022/07/28 11:55:33;;;;;;;5.32;1.70;;;;;;;;;;4955420;29;20043;-79
2022/07/28 11:58:01;;;;;;;3.30;2.45;;;;;;;;;;4954639;29;20030;-78
2022/07/28 12:00:28;;;;;;;6.85;2.38;;;;;;;;;;4947856;29;20031;-78
2022/07/28 12:02:54;;;;;;;10.38;4.18;;;;;;;;;;4924162;29;20044;-77
2022/07/28 12:05:21;;;;;;;2.97;1.75;;;;;;;;;;4948040;29;20050;-78
2022/07/28 12:07:49;;;;;;;6.90;1.83;;;;;;;;;;4945783;28;20058;-78
2022/07/28 12:10:30;;;;;;;4.28;1.63;;;;;;;;;;4957647;28;20035;-73
2022/07/28 12:13:01;;;;;;;5.05;1.77;;;;;;;;;;4965844;28;20031;-76
2022/07/28 12:15:27;;;;;;;1.77;1.35;;;;;;;;;;4957562;28;20043;-77
2022/07/28 12:17:53;;;;;;;10.38;2.58;;;;;;;;;;4932631;29;20500;-77
2022/07/28 12:20:20;;;;;;;8.18;2.40;;;;;;;;;;4935203;28;20243;-77
2022/07/28 12:23:04;;;;;;;7.40;2.33;;;;;;;;;;4926964;28;20031;-78
2022/07/28 12:25:41;;;;;;;5.43;1.90;;;;;;;;;;4932413;28;20083;-77
2022/07/28 12:28:21;;;;;;;11.60;2.80;;;;;;;;;;4941101;28;20035;-76
2022/07/28 12:30:48;;;;;;;6.95;2.00;;;;;;;;;;4945654;28;20488;-77
2022/07/28 12:33:19;;;;;;;6.32;1.90;;;;;;;;;;4932009;28;20182;-76
2022/07/28 12:35:47;;;;;;;6.97;2.25;;;;;;;;;;4941139;28;20631;-75
2022/07/28 12:38:15;;;;;;;5.07;2.15;;;;;;;;;;4945236;28;20050;-75
2022/07/28 12:40:42;;;;;;;4.45;1.85;;;;;;;;;;4944008;28;20126;-76
2022/07/28 12:43:08;;;;;;;5.82;1.70;;;;;;;;;;4929663;28;20142;-76
2022/07/28 12:45:45;;;;;;;3.25;1.60;;;;;;;;;;4923340;29;20027;-78
2022/07/28 12:48:12;;;;;;;7.40;1.70;;;;;;;;;;4934260;29;20031;-78
2022/07/28 12:50:39;;;;;;;3.60;2.17;;;;;;;;;;4946713;28;20524;-76
2022/07/28 12:53:09;;;;;;;7.93;2.22;;;;;;;;;;4935875;28;20460;-77
2022/07/28 12:55:36;;;;;;;6.80;2.42;;;;;;;;;;4932204;29;20063;-77
2022/07/28 12:58:03;;;;;;;10.05;2.20;;;;;;;;;;4932248;28;20301;-76
2022/07/28 13:00:32;;;;;;;5.47;1.92;;;;;;;;;;4934849;28;20036;-77
2022/07/28 13:03:00;;;;;;;5.03;1.85;;;;;;;;;;4937118;28;20105;-76
2022/07/28 13:08:23;;;;;;;3.72;1.85;;;;;;;;;;4939557;28;20058;-78
2022/07/28 13:10:51;;;;;;;5.28;1.83;;;;;;;;;;4941598;28;20075;-78
2022/07/28 13:13:18;;;;;;;5.38;1.83;;;;;;;;;;4951682;28;20062;-77
2022/07/28 13:15:44;;;;;;;7.53;2.63;;;;;;;;;;4939151;28;20059;-75
2022/07/28 13:18:13;;;;;;;7.00;1.70;;;;;;;;;;4944226;28;20118;-76
2022/07/28 13:20:50;;;;;;;5.30;2.17;;;;;;;;;;4942266;28;20036;-77
2022/07/28 13:23:16;;;;;;;4.25;2.10;;;;;;;;;;4943455;28;20115;-76
2022/07/28 13:25:42;;;;;;;5.97;2.30;;;;;;;;;;4945641;28;20082;-77
2022/07/28 13:28:22;;;;;;;6.63;2.30;;;;;;;;;;4937696;29;20665;-77
2022/07/28 13:30:48;;;;;;;5.43;1.98;;;;;;;;;;4944270;28;20038;-77
2022/07/28 13:33:15;;;;;;;11.57;2.30;;;;;;;;;;4932919;29;20035;-78
2022/07/28 13:35:41;;;;;;;6.35;2.67;;;;;;;;;;4935234;29;20035;-75
2022/07/28 13:38:07;;;;;;;4.32;2.60;;;;;;;;;;4935052;28;20046;-75
2022/07/28 13:40:32;;;;;;;6.75;2.20;;;;;;;;;;4941186;28;20185;-76
2022/07/28 13:42:59;;;;;;;5.88;1.70;;;;;;;;;;4946325;28;20030;-76
2022/07/28 13:45:24;;;;;;;7.25;2.22;;;;;;;;;;4945993;28;20074;-77
2022/07/28 13:47:51;;;;;;;7.35;2.17;;;;;;;;;;4941055;28;20043;-76
2022/07/28 13:50:17;;;;;;;5.03;1.88;;;;;;;;;;4957221;28;20039;-77
2022/07/28 13:52:43;;;;;;;6.40;2.80;;;;;;;;;;4941012;29;20046;-76
2022/07/28 13:55:08;;;;;;;9.93;2.50;;;;;;;;;;4942415;29;20031;-76
2022/07/28 13:57:34;;;;;;;11.15;2.65;;;;;;;;;;4939500;28;20039;-76
2022/07/28 14:00:02;;;;;;;4.78;2.22;;;;;;;;;;4942433;29;20041;-77
2022/07/28 14:02:28;;;;;;;7.82;1.95;;;;;;;;;;4945641;28;20043;-75
2022/07/28 14:04:55;;;;;;;3.72;1.80;;;;;;;;;;4943017;29;20046;-76
2022/07/28 14:07:24;;;;;;;3.63;1.67;;;;;;;;;;4946145;28;20114;-77
2022/07/28 14:09:50;;;;;;;3.42;1.60;;;;;;;;;;4961577;28;20394;-75
2022/07/28 14:12:19;;;;;;;4.03;1.70;;;;;;;;;;4947055;28;20043;-77
2022/07/28 14:14:45;;;;;;;5.70;1.37;;;;;;;;;;4945149;28;20067;-77
2022/07/28 14:17:10;;;;;;;6.75;3.17;;;;;;;;;;4964575;28;20432;-76
2022/07/28 14:19:37;;;;;;;4.50;1.67;;;;;;;;;;4947707;29;20030;-77
2022/07/28 14:22:04;;;;;;;3.50;1.70;;;;;;;;;;4965463;28;20038;-77
2022/07/28 14:24:29;;;;;;;3.80;1.83;;;;;;;;;;4944147;29;20082;-76
2022/07/28 14:26:55;;;;;;;6.90;2.20;;;;;;;;;;4964992;28;20487;-77
2022/07/28 14:29:20;;;;;;;5.18;1.67;;;;;;;;;;4963245;28;20027;-77
2022/07/28 14:31:47;;;;;;;6.43;1.90;;;;;;;;;;4979356;28;20052;-77
2022/07/28 14:34:13;;;;;;;5.50;2.00;;;;;;;;;;4957449;29;20034;-76
2022/07/28 14:36:38;;;;;;;5.22;1.77;;;;;;;;;;4968781;28;20484;-75
2022/07/28 14:39:04;;;;;;;3.67;1.88;;;;;;;;;;4948617;28;20031;-77
2022/07/28 14:41:30;;;;;;;6.40;1.73;;;;;;;;;;4944359;28;20027;-76
2022/07/28 14:43:56;;;;;;;3.80;1.60;;;;;;;;;;4947196;29;20023;-76
2022/07/28 14:46:21;;;;;;;5.45;1.85;;;;;;;;;;4944648;28;20563;-76
2022/07/28 14:48:48;;;;;;;11.95;1.52;;;;;;;;;;4945276;28;20110;-76
2022/07/28 14:51:14;;;;;;;3.95;2.53;;;;;;;;;;4964856;28;20027;-76
2022/07/28 14:53:41;;;;;;;4.50;2.20;;;;;;;;;;4961084;28;20097;-78
2022/07/28 14:56:16;;;;;;;5.32;1.90;;;;;;;;;;4963980;28;20036;-76